createdAt,value
2023-03-28T00:04:18.899Z,15.70
2023-03-28T00:06:47.565Z,12.75
2023-03-28T00:09:15.363Z,14.73
2023-03-28T00:11:43.900Z,8.68
2023-03-28T00:14:14.409Z,12.10
2023-03-28T00:16:47.329Z,23.02
2023-03-28T00:19:17.033Z,17.77
2023-03-28T00:21:48.470Z,10.35
2023-03-28T00:24:17.605Z,16.42
2023-03-28T00:26:45.914Z,17.95
2023-03-28T00:29:22.853Z,9.02
2023-03-28T00:31:51.357Z,9.23
2023-03-28T00:34:19.380Z,14.90
2023-03-28T00:36:48.129Z,11.45
2023-03-28T00:39:16.139Z,14.13
2023-03-28T00:41:45.002Z,8.82
2023-03-28T00:44:34.031Z,15.73
2023-03-28T00:47:01.837Z,18.52
2023-03-28T00:49:30.348Z,20.85
2023-03-28T00:51:59.240Z,9.77
2023-03-28T00:54:29.266Z,9.80
2023-03-28T00:56:58.665Z,9.80
2023-03-28T00:59:29.876Z,19.98
2023-03-28T01:01:58.918Z,13.00
2023-03-28T01:04:34.063Z,9.98
2023-03-28T01:07:02.507Z,13.18
2023-03-28T01:09:37.015Z,10.60
2023-03-28T01:12:06.358Z,19.27
2023-03-28T01:14:46.677Z,7.90
2023-03-28T01:17:16.256Z,10.60
2023-03-28T01:19:47.363Z,9.80
2023-03-28T01:22:27.035Z,6.68
2023-03-28T01:25:08.965Z,10.05
2023-03-28T01:27:46.183Z,11.23
2023-03-28T01:30:18.466Z,10.40
2023-03-28T01:33:13.096Z,8.98
2023-03-28T01:35:53.307Z,11.20
2023-03-28T01:38:24.417Z,6.38
2023-03-28T01:40:58.403Z,10.30
2023-03-28T01:43:55.102Z,10.27
2023-03-28T01:46:26.459Z,9.52
2023-03-28T01:49:12.923Z,9.55
2023-03-28T01:51:44.438Z,14.25
2023-03-28T01:54:30.846Z,10.80
2023-03-28T01:57:03.224Z,14.15
2023-03-28T01:59:51.870Z,13.50
2023-03-28T02:02:28.598Z,8.60
2023-03-28T02:05:01.320Z,9.75
2023-03-28T02:07:30.188Z,9.10
2023-03-28T02:10:08.756Z,13.90
2023-03-28T02:12:56.158Z,15.48
2023-03-28T02:15:45.255Z,5.85
2023-03-28T02:18:38.457Z,16.27
2023-03-28T02:21:46.183Z,11.55
2023-03-28T02:24:33.363Z,12.23
2023-03-28T02:27:23.026Z,11.43
2023-03-28T02:29:59.818Z,9.00
2023-03-28T02:32:38.060Z,12.00
2023-03-28T02:35:07.442Z,10.60
2023-03-28T02:37:58.206Z,12.82
2023-03-28T02:40:35.453Z,5.30
2023-03-28T02:43:18.357Z,14.93
2023-03-28T02:46:09.891Z,6.90
2023-03-28T02:48:37.633Z,13.73
2023-03-28T02:51:24.063Z,14.75
2023-03-28T02:54:10.763Z,12.55
2023-03-28T02:56:45.410Z,7.65
2023-03-28T02:59:32.860Z,10.85
2023-03-28T03:02:03.212Z,8.02
2023-03-28T03:04:31.293Z,13.43
2023-03-28T03:07:02.129Z,11.27
2023-03-28T03:09:34.958Z,11.52
2023-03-28T03:12:02.872Z,6.80
2023-03-28T03:14:30.658Z,10.40
2023-03-28T03:17:18.638Z,10.88
2023-03-28T03:19:48.942Z,11.32
2023-03-28T03:22:21.272Z,11.65
2023-03-28T03:24:52.751Z,16.75
2023-03-28T03:27:24.273Z,13.55
2023-03-28T03:29:53.440Z,13.27
2023-03-28T03:32:26.087Z,7.70
2023-03-28T03:35:03.923Z,13.02
2023-03-28T03:37:31.891Z,11.23
2023-03-28T03:39:59.730Z,10.70
2023-03-28T03:42:33.005Z,14.93
2023-03-28T03:45:02.714Z,19.85
2023-03-28T03:47:31.361Z,15.23
2023-03-28T03:49:59.583Z,11.43
2023-03-28T03:52:28.786Z,10.82
2023-03-28T03:54:57.118Z,18.05
2023-03-28T03:57:25.592Z,11.65
2023-03-28T04:00:00.097Z,10.50
2023-03-28T04:02:32.134Z,7.35
2023-03-28T04:05:02.675Z,13.67
2023-03-28T04:08:00.985Z,13.70
2023-03-28T04:10:34.140Z,8.57
2023-03-28T04:13:03.070Z,12.20
2023-03-28T04:15:32.993Z,13.23
2023-03-28T04:18:09.473Z,14.98
2023-03-28T04:20:43.818Z,18.50
2023-03-28T04:23:11.878Z,15.20
2023-03-28T04:25:43.943Z,17.33
2023-03-28T04:28:17.354Z,16.17
2023-03-28T04:30:59.999Z,15.10
2023-03-28T04:33:46.937Z,17.95
2023-03-28T04:36:18.945Z,13.88
2023-03-28T04:38:59.455Z,9.17
2023-03-28T04:41:49.068Z,10.38
2023-03-28T04:44:36.451Z,17.60
2023-03-28T04:47:08.820Z,13.18
2023-03-28T04:49:36.536Z,14.10
2023-03-28T04:52:04.506Z,12.00
2023-03-28T04:54:32.667Z,17.88
2023-03-28T04:57:06.496Z,13.30
2023-03-28T04:59:42.915Z,12.95
2023-03-28T05:02:15.094Z,15.00
2023-03-28T05:04:45.371Z,14.05
2023-03-28T05:07:15.102Z,14.43
2023-03-28T05:09:43.562Z,15.18
2023-03-28T05:12:12.303Z,11.80
2023-03-28T05:15:01.715Z,10.95
2023-03-28T05:17:31.018Z,11.07
2023-03-28T05:20:11.461Z,14.55
2023-03-28T05:22:48.987Z,17.98
2023-03-28T05:25:19.016Z,10.52
2023-03-28T05:27:47.667Z,13.73
2023-03-28T05:30:16.912Z,20.25
2023-03-28T05:32:46.493Z,12.57
2023-03-28T05:35:15.464Z,13.32
2023-03-28T05:37:47.223Z,12.93
2023-03-28T05:40:21.652Z,12.15
2023-03-28T05:42:53.141Z,15.23
2023-03-28T05:45:28.570Z,15.00
2023-03-28T05:48:07.073Z,18.10
2023-03-28T05:50:37.711Z,16.35
2023-03-28T05:53:07.818Z,10.55
2023-03-28T05:55:36.371Z,21.67
2023-03-28T05:58:05.732Z,12.57
2023-03-28T06:00:39.727Z,18.25
2023-03-28T06:03:08.382Z,18.52
2023-03-28T06:05:47.548Z,19.00
2023-03-28T06:08:24.052Z,20.50
2023-03-28T06:10:52.701Z,15.63
2023-03-28T06:13:29.951Z,18.65
2023-03-28T06:15:58.479Z,16.27
2023-03-28T06:18:36.124Z,19.52
2023-03-28T06:21:04.644Z,20.77
2023-03-28T06:23:32.906Z,21.42
2023-03-28T06:26:02.695Z,18.48
2023-03-28T06:28:40.783Z,21.30
2023-03-28T06:31:18.126Z,21.35
2023-03-28T06:33:48.610Z,25.05
2023-03-28T06:36:19.865Z,20.52
2023-03-28T06:38:52.644Z,29.23
2023-03-28T06:41:25.480Z,25.98
2023-03-28T06:43:55.334Z,26.17
2023-03-28T06:46:49.826Z,23.70
2023-03-28T06:49:19.067Z,16.85
2023-03-28T06:52:26.970Z,20.73
2023-03-28T06:54:57.093Z,22.77
2023-03-28T06:57:26.237Z,25.75
2023-03-28T07:00:04.667Z,25.00
2023-03-28T07:02:53.190Z,24.58
2023-03-28T07:05:22.579Z,19.63
2023-03-28T07:07:51.159Z,24.35
2023-03-28T07:10:22.407Z,24.52
2023-03-28T07:12:55.272Z,21.63
2023-03-28T07:15:23.846Z,20.25
2023-03-28T07:17:53.645Z,30.30
2023-03-28T07:20:25.306Z,20.17
2023-03-28T07:22:53.904Z,23.35
2023-03-28T07:25:22.863Z,28.17
2023-03-28T07:28:17.064Z,28.35
2023-03-28T07:30:44.805Z,28.15
2023-03-28T07:33:22.066Z,24.80
2023-03-28T07:35:56.422Z,23.40
2023-03-28T07:38:24.595Z,31.38
2023-03-28T07:40:56.480Z,28.63
2023-03-28T07:43:30.809Z,26.55
2023-03-28T07:46:09.133Z,27.33
2023-03-28T07:49:14.200Z,27.08
2023-03-28T07:51:45.005Z,27.73
2023-03-28T07:54:18.167Z,32.72
2023-03-28T07:56:49.166Z,31.40
2023-03-28T07:59:41.380Z,31.15
2023-03-28T08:02:13.541Z,25.38
2023-03-28T08:04:41.508Z,25.33
2023-03-28T08:07:11.238Z,27.83
2023-03-28T08:09:40.072Z,27.40
2023-03-28T08:12:23.438Z,20.63
2023-03-28T08:14:56.386Z,30.60
2023-03-28T08:17:25.088Z,34.72
2023-03-28T08:19:56.633Z,26.35
2023-03-28T08:22:26.386Z,22.27
2023-03-28T08:25:17.109Z,19.58
2023-03-28T08:27:46.695Z,26.20
2023-03-28T08:30:15.782Z,25.15
2023-03-28T08:32:58.814Z,17.75
2023-03-28T08:35:27.331Z,17.83
2023-03-28T08:38:02.077Z,16.13
2023-03-28T08:40:30.982Z,19.50
2023-03-28T08:43:35.026Z,22.30
2023-03-28T08:46:03.253Z,28.58
2023-03-28T08:48:51.293Z,20.73
2023-03-28T08:51:44.208Z,29.20
2023-03-28T08:54:27.487Z,15.73
2023-03-28T08:57:00.984Z,18.42
2023-03-28T08:59:29.803Z,23.23
2023-03-28T09:01:59.899Z,17.58
2023-03-28T09:04:27.991Z,23.42
2023-03-28T09:07:29.969Z,15.20
2023-03-28T09:10:07.004Z,10.00
2023-03-28T09:13:00.453Z,10.55
2023-03-28T09:15:33.662Z,13.50
2023-03-28T09:18:01.611Z,17.25
2023-03-28T09:20:35.280Z,11.73
2023-03-28T09:23:56.137Z,14.35
2023-03-28T09:26:58.692Z,10.50
2023-03-28T09:29:29.045Z,9.77
2023-03-28T09:32:22.265Z,9.38
2023-03-28T09:34:52.383Z,16.90
2023-03-28T09:37:31.146Z,14.55
2023-03-28T09:40:02.552Z,14.43
2023-03-28T09:42:48.001Z,14.77
2023-03-28T09:45:38.939Z,15.15
2023-03-28T09:48:30.189Z,11.32
2023-03-28T09:51:02.628Z,16.13
2023-03-28T09:53:33.396Z,14.10
2023-03-28T09:56:28.354Z,8.57
2023-03-28T09:59:03.907Z,16.67
2023-03-28T10:01:53.998Z,13.45
2023-03-28T10:04:39.145Z,12.30
2023-03-28T10:07:53.268Z,7.75
2023-03-28T10:10:55.549Z,7.95
2023-03-28T10:13:24.336Z,9.75
2023-03-28T10:15:53.818Z,9.88
2023-03-28T10:18:42.903Z,8.90
2023-03-28T10:21:18.239Z,10.27
2023-03-28T10:24:09.658Z,10.13
2023-03-28T10:26:38.529Z,8.32
2023-03-28T10:29:08.045Z,11.15
2023-03-28T10:34:37.352Z,11.33
2023-03-28T10:37:35.714Z,11.52
2023-03-28T10:40:24.009Z,6.90
2023-03-28T10:43:23.460Z,15.68
2023-03-28T10:46:08.452Z,14.93
2023-03-28T10:48:52.815Z,12.77
2023-03-28T10:51:25.194Z,13.00
2023-03-28T10:54:07.115Z,13.05
2023-03-28T10:56:42.516Z,11.45
2023-03-28T10:59:12.821Z,9.35
2023-03-28T11:01:44.672Z,8.48
2023-03-28T11:04:17.070Z,4.88
2023-03-28T11:06:47.968Z,17.58
2023-03-28T11:09:23.813Z,7.88
2023-03-28T11:12:27.624Z,9.75
2023-03-28T11:15:03.522Z,9.23
2023-03-28T11:17:53.674Z,8.80
2023-03-28T11:20:40.515Z,8.23
2023-03-28T11:23:38.064Z,7.68
2023-03-28T11:26:48.488Z,11.90
2023-03-28T11:29:55.847Z,8.25
2023-03-28T11:32:35.847Z,10.70
2023-03-28T11:35:06.962Z,10.27
2023-03-28T11:37:43.838Z,13.48
2023-03-28T11:40:12.207Z,10.98
2023-03-28T11:42:55.229Z,14.18
2023-03-28T11:45:34.166Z,10.52
2023-03-28T11:48:21.733Z,10.80
2023-03-28T11:50:59.032Z,11.05
2023-03-28T11:53:57.315Z,7.47
2023-03-28T11:56:49.620Z,6.80
2023-03-28T11:59:29.626Z,8.63
2023-03-28T12:02:04.942Z,8.05
2023-03-28T12:04:37.894Z,12.55
2023-03-28T12:07:18.997Z,7.57
2023-03-28T12:09:59.748Z,9.10
2023-03-28T12:12:38.033Z,8.32
2023-03-28T12:15:16.890Z,10.98
2023-03-28T12:18:04.027Z,12.02
2023-03-28T12:20:46.936Z,8.52
2023-03-28T12:23:54.658Z,11.40
2023-03-28T12:29:59.889Z,8.82
2023-03-28T12:37:33.135Z,12.88
2023-03-28T12:40:24.377Z,11.82
2023-03-28T12:43:35.197Z,7.50
2023-03-28T12:49:44.574Z,10.75
2023-03-28T12:52:24.574Z,6.32
2023-03-28T12:55:10.186Z,17.13
2023-03-28T13:04:18.947Z,11.82
2023-03-28T13:06:54.569Z,7.88
2023-03-28T13:09:24.474Z,12.13
2023-03-28T13:11:56.904Z,13.25
2023-03-28T13:14:27.943Z,9.80
2023-03-28T13:17:02.585Z,17.67
2023-03-28T13:20:01.206Z,10.63
2023-03-28T13:22:31.726Z,6.88
2023-03-28T13:27:48.917Z,8.60
2023-03-28T13:30:18.220Z,10.68
2023-03-28T13:32:53.533Z,12.95
2023-03-28T13:35:40.074Z,8.55
2023-03-28T13:38:17.837Z,10.60
2023-03-28T13:40:56.182Z,11.40
2023-03-28T13:43:45.796Z,10.87
2023-03-28T13:46:21.288Z,14.05
2023-03-28T13:48:56.670Z,8.35
2023-03-28T13:51:26.765Z,9.60
2023-03-28T13:53:55.528Z,8.93
2023-03-28T13:56:25.805Z,11.77
2023-03-28T13:58:55.747Z,9.45
2023-03-28T14:01:25.240Z,13.68
2023-03-28T14:03:55.095Z,11.77
2023-03-28T14:06:27.631Z,11.32
2023-03-28T14:09:02.776Z,7.75
2023-03-28T14:11:33.453Z,6.35
2023-03-28T14:14:09.731Z,6.30
2023-03-28T14:16:38.710Z,13.23
2023-03-28T14:19:07.286Z,13.93
2023-03-28T14:21:35.847Z,7.65
2023-03-28T14:24:06.786Z,9.10
2023-03-28T14:26:38.130Z,10.98
2023-03-28T14:29:14.408Z,8.23
2023-03-28T14:31:46.467Z,9.32
2023-03-28T14:34:30.597Z,9.75
2023-03-28T14:37:03.042Z,18.15
2023-03-28T14:39:33.151Z,10.35
2023-03-28T14:42:07.207Z,13.63
2023-03-28T14:44:40.922Z,6.10
2023-03-28T14:47:09.153Z,10.05
2023-03-28T14:49:38.088Z,7.88
2023-03-28T14:52:12.065Z,7.95
2023-03-28T14:54:43.755Z,11.48
2023-03-28T14:57:15.813Z,7.15
2023-03-28T14:59:45.741Z,8.18
2023-03-28T15:02:35.584Z,12.15
2023-03-28T15:05:06.355Z,9.90
2023-03-28T15:10:07.619Z,8.27
2023-03-28T15:12:46.661Z,15.02
2023-03-28T15:15:16.571Z,12.00
2023-03-28T15:17:46.353Z,13.68
2023-03-28T15:20:24.347Z,12.02
2023-03-28T15:22:58.660Z,9.05
2023-03-28T15:25:26.843Z,6.70
2023-03-28T15:27:57.702Z,8.63
2023-03-28T15:30:26.012Z,10.38
2023-03-28T15:33:01.156Z,7.45
2023-03-28T15:35:43.948Z,11.63
2023-03-28T15:38:24.217Z,10.00
2023-03-28T15:41:12.295Z,8.20
2023-03-28T15:43:56.883Z,12.18
2023-03-28T15:46:34.724Z,9.75
2023-03-28T15:49:06.248Z,17.15
2023-03-28T15:51:43.803Z,6.45
2023-03-28T15:54:24.038Z,10.45
2023-03-28T15:57:00.569Z,14.20
2023-03-28T15:59:28.429Z,10.88
2023-03-28T16:02:15.541Z,12.05
2023-03-28T16:04:57.589Z,8.50
2023-03-28T16:07:26.889Z,11.13
2023-03-28T16:09:55.443Z,10.00
2023-03-28T16:12:26.176Z,9.32
2023-03-28T16:15:13.606Z,11.90
2023-03-28T16:17:55.676Z,6.63
2023-03-28T16:20:49.633Z,9.65
2023-03-28T16:23:17.689Z,7.80
2023-03-28T16:25:45.853Z,15.93
2023-03-28T16:28:18.273Z,12.82
2023-03-28T16:30:47.505Z,8.05
2023-03-28T16:33:15.538Z,7.00
2023-03-28T16:35:43.465Z,9.18
2023-03-28T16:38:11.925Z,8.77
2023-03-28T16:48:46.610Z,7.80
2023-03-28T16:55:36.632Z,8.10
2023-03-28T16:58:04.571Z,8.20
2023-03-28T17:00:43.177Z,11.63
2023-03-28T17:03:13.384Z,10.73
2023-03-28T17:05:41.730Z,6.55
2023-03-28T17:08:11.078Z,4.75
2023-03-28T17:10:47.576Z,7.53
2023-03-28T17:13:17.802Z,7.57
2023-03-28T17:15:48.449Z,7.10
2023-03-28T17:18:16.367Z,7.10
2023-03-28T17:20:44.218Z,8.13
2023-03-28T17:23:12.515Z,11.65
2023-03-28T17:25:53.913Z,9.15
2023-03-28T17:28:27.034Z,6.68
2023-03-28T17:30:56.032Z,12.00
2023-03-28T17:33:24.697Z,9.63
2023-03-28T17:35:54.393Z,7.82
2023-03-28T17:38:23.663Z,9.45
2023-03-28T17:40:55.208Z,8.05
2023-03-28T17:43:24.798Z,7.50
2023-03-28T17:45:55.676Z,9.07
2023-03-28T17:48:24.750Z,11.88
2023-03-28T17:51:06.092Z,8.20
2023-03-28T17:53:34.211Z,5.13
2023-03-28T17:56:04.951Z,5.20
2023-03-28T17:58:34.178Z,6.55
2023-03-28T18:01:02.006Z,7.22
2023-03-28T18:03:29.940Z,3.78
2023-03-28T18:08:37.927Z,4.60
2023-03-28T18:11:08.653Z,4.90
2023-03-28T18:13:37.474Z,3.15
2023-03-28T18:16:05.688Z,5.00
2023-03-28T18:18:34.011Z,5.43
2023-03-28T18:21:02.023Z,5.65
2023-03-28T18:23:29.785Z,6.32
2023-03-28T18:25:57.649Z,5.15
2023-03-28T18:28:26.456Z,2.63
2023-03-28T18:30:57.194Z,5.27
2023-03-28T18:33:26.285Z,8.05
2023-03-28T18:36:03.545Z,4.80
2023-03-28T18:38:36.887Z,5.78
2023-03-28T18:41:08.603Z,8.60
2023-03-28T18:43:37.734Z,3.65
2023-03-28T18:46:21.011Z,7.50
2023-03-28T18:48:59.527Z,4.10
2023-03-28T18:51:35.914Z,5.15
2023-03-28T18:56:53.764Z,3.17
2023-03-28T18:59:21.578Z,5.15
2023-03-28T19:01:51.868Z,4.45
2023-03-28T19:06:53.570Z,6.18
2023-03-28T19:09:21.458Z,4.75
2023-03-28T19:11:55.902Z,3.83
2023-03-28T19:14:25.822Z,5.03
2023-03-28T19:16:55.024Z,5.90
2023-03-28T19:19:24.875Z,10.00
2023-03-28T19:21:58.891Z,9.65
2023-03-28T19:24:29.976Z,4.65
2023-03-28T19:27:11.708Z,5.25
2023-03-28T19:29:48.549Z,4.88
2023-03-28T19:32:21.833Z,7.43
2023-03-28T19:34:54.960Z,6.93
2023-03-28T19:37:23.309Z,7.95
2023-03-28T19:39:51.155Z,5.18
2023-03-28T19:42:20.499Z,9.30
2023-03-28T19:44:49.641Z,6.72
2023-03-28T19:47:17.651Z,4.72
2023-03-28T19:49:55.594Z,5.22
2023-03-28T19:52:24.402Z,8.07
2023-03-28T19:54:54.744Z,4.22
2023-03-28T19:57:25.077Z,8.30
2023-03-28T20:02:21.202Z,8.02
2023-03-28T20:04:58.893Z,7.18
2023-03-28T20:07:27.334Z,9.15
2023-03-28T20:10:03.518Z,9.13
2023-03-28T20:12:31.493Z,7.57
2023-03-28T20:15:05.368Z,9.68
2023-03-28T20:17:32.991Z,9.65
2023-03-28T20:20:00.541Z,9.63
2023-03-28T20:22:29.904Z,7.85
2023-03-28T20:24:58.158Z,5.10
2023-03-28T20:27:25.825Z,6.22
2023-03-28T20:29:54.402Z,9.48
2023-03-28T20:32:25.375Z,6.35
2023-03-28T20:34:53.339Z,11.95
2023-03-28T20:37:23.408Z,9.65
2023-03-28T20:39:54.641Z,4.95
2023-03-28T20:42:24.379Z,8.82
2023-03-28T20:44:51.865Z,7.10
2023-03-28T20:47:25.287Z,4.80
2023-03-28T20:49:56.990Z,9.93
2023-03-28T20:52:25.760Z,5.70
2023-03-28T20:54:54.794Z,12.13
2023-03-28T20:57:25.771Z,5.50
2023-03-28T20:59:58.288Z,7.93
2023-03-28T21:02:26.849Z,7.30
2023-03-28T21:04:57.614Z,8.93
2023-03-28T21:07:27.021Z,9.65
2023-03-28T21:09:59.814Z,4.85
2023-03-28T21:12:28.224Z,7.35
2023-03-28T21:15:04.060Z,4.45
2023-03-28T21:17:31.890Z,6.43
2023-03-28T21:19:59.457Z,5.25
2023-03-28T21:22:27.893Z,5.35
2023-03-28T21:24:55.910Z,4.60
2023-03-28T21:27:24.285Z,6.55
2023-03-28T21:29:52.039Z,9.02
2023-03-28T21:32:20.745Z,7.35
2023-03-28T21:34:56.693Z,5.43
2023-03-28T21:37:25.880Z,7.97
2023-03-28T21:39:54.867Z,6.60
2023-03-28T21:42:23.354Z,7.88
2023-03-28T21:44:52.617Z,6.05
2023-03-28T21:47:20.823Z,4.43
2023-03-28T21:49:49.694Z,7.72
2023-03-28T21:52:18.028Z,6.57
2023-03-28T21:54:46.253Z,8.18
2023-03-28T21:57:13.762Z,9.10
2023-03-28T21:59:46.483Z,6.70
2023-03-28T22:02:14.425Z,9.52
2023-03-28T22:04:45.131Z,9.70
2023-03-28T22:07:14.634Z,8.68
2023-03-28T22:09:42.508Z,7.60
2023-03-28T22:12:10.460Z,4.88
2023-03-28T22:14:38.091Z,8.25
2023-03-28T22:17:07.320Z,11.00
2023-03-28T22:19:35.166Z,7.55
2023-03-28T22:22:05.902Z,9.48
2023-03-28T22:27:01.940Z,5.75
2023-03-28T22:29:30.191Z,5.43
2023-03-28T22:32:06.988Z,10.15
2023-03-28T22:34:36.746Z,15.57
2023-03-28T22:37:04.371Z,6.15
2023-03-28T22:39:33.164Z,8.20
2023-03-28T22:42:00.900Z,15.10
2023-03-28T22:44:34.362Z,8.07
2023-03-28T22:47:02.882Z,11.45
2023-03-28T22:49:32.786Z,7.53
2023-03-28T22:52:03.819Z,6.65
2023-03-28T22:54:37.978Z,8.88
2023-03-28T22:57:06.247Z,10.50
2023-03-28T22:59:36.668Z,9.65
2023-03-28T23:02:09.755Z,9.40
2023-03-28T23:04:38.551Z,10.50
2023-03-28T23:07:06.734Z,11.77
2023-03-28T23:09:34.466Z,12.38
2023-03-28T23:12:02.302Z,8.18
2023-03-28T23:14:29.826Z,9.07
2023-03-28T23:16:59.422Z,9.35
2023-03-28T23:19:27.335Z,11.40
2023-03-28T23:22:00.540Z,7.93
2023-03-28T23:24:28.931Z,8.70
2023-03-28T23:27:00.826Z,8.68
2023-03-28T23:29:28.613Z,7.45
2023-03-28T23:32:02.841Z,8.57
2023-03-28T23:34:33.472Z,7.43
2023-03-28T23:37:02.578Z,12.00
2023-03-28T23:39:30.669Z,9.02
2023-03-28T23:41:58.615Z,15.63
2023-03-28T23:44:31.018Z,7.70
2023-03-28T23:47:00.472Z,11.57
2023-03-28T23:49:34.229Z,5.65
2023-03-28T23:52:03.349Z,9.75
2023-03-28T23:54:45.329Z,9.80
2023-03-28T23:57:13.243Z,10.98
2023-03-28T23:59:49.354Z,10.15
